Lanigan, Canada
Current Conditions -  °F | °C
As of 12:00 AM on Wednesday 28 Jan 2015 (Local Time) from CYXE Reporting Station
Overcast Overcast  
Wind Chill: 14°   Ceiling: 500
Heat Index: 27°   Visibility: 15mi
Dew Point: 27°   Wind: 16mph
Humidity: 100%   Direction: 70°ENE
Pressure: 29.87"   Gusts: 23mph
Location:  51.85°N, 105.03°W
Report Text: CYXE 280600Z 07014G20KT 15SM OVC005 M03/M03 A2987 RMK ST8 SLP143
Loading
Personal Weather Stations






























Interactive Weather Map New forecast layout! Learn more

10-Day Weather Forecast

Advertisements
Track Severe Weather on mobile